Time;durP1;ratioP1;P1;durP2;ratioP2;P2;SDS_P1;SDS_P2;PMS_P1;PMS_P2;Temp;Humidity;BMP_temperature;BMP_pressure;BME280_temperature;BME280_humidity;BME280_pressure;Samples;Min_cycle;Max_cycle;Signal;HPM_P1;HPM_P2
2023/01/21 06:52:58;;;;;;;;;;;;;;;-1.74;82.41;98634.97;4875159;29;19975;-62
2023/01/21 06:55:23;;;;;;;;;;;;;;;-1.79;82.58;98644.47;4878891;29;19924;-63
2023/01/21 06:57:48;;;;;;;;;;;;;;;-1.80;82.80;98649.59;4874053;29;19915;-63
2023/01/21 07:00:13;;;;;;;;;;;;;;;-1.75;83.14;98638.41;4879407;29;19919;-62
2023/01/21 07:02:39;;;;;;;;;;;;;;;-1.72;82.98;98652.94;4866074;29;20059;-63
2023/01/21 07:05:04;;;;;;;;;;;;;;;-1.66;81.86;98652.84;4857924;29;19971;-64
2023/01/21 07:07:29;;;;;;;;;;;;;;;-1.64;82.73;98658.84;4856503;29;19969;-63
2023/01/21 07:09:55;;;;;;;;;;;;;;;-1.62;82.32;98656.25;4856250;29;19927;-63
2023/01/21 07:12:20;;;;;;;;;;;;;;;-1.52;82.79;98660.41;4860374;29;19916;-62
2023/01/21 07:14:45;;;;;;;;;;;;;;;-1.56;81.53;98667.31;4858728;29;19923;-63
2023/01/21 07:17:10;;;;;;;;;;;;;;;-1.57;81.57;98657.06;4859771;29;20113;-63
2023/01/21 07:19:35;;;;;;;;;;;;;;;-1.56;81.46;98663.88;4860586;29;19916;-63
2023/01/21 07:22:01;;;;;;;;;;;;;;;-1.58;81.76;98671.63;4860303;29;19920;-63
2023/01/21 07:24:26;;;;;;;;;;;;;;;-0.62;95.53;98672.00;4860190;29;19927;-63
2023/01/21 07:26:51;;;;;;;;;;;;;;;-0.72;85.01;98668.69;4860435;29;19920;-63
2023/01/21 07:29:16;;;;;;;;;;;;;;;-0.86;81.32;98668.06;4859491;29;19916;-62
2023/01/21 07:31:42;;;;;;;;;;;;;;;-0.84;79.96;98670.59;4857524;29;19927;-62
2023/01/21 07:34:07;;;;;;;;;;;;;;;-0.96;79.88;98672.50;4855889;29;20388;-63
2023/01/21 07:36:32;;;;;;;;;;;;;;;-1.16;80.69;98664.22;4858937;29;19920;-62
2023/01/21 07:38:57;;;;;;;;;;;;;;;-1.26;81.15;98668.63;4852687;29;19927;-62
2023/01/21 07:41:22;;;;;;;;;;;;;;;-1.24;80.59;98674.63;4859995;29;19923;-62
2023/01/21 07:43:48;;;;;;;;;;;;;;;-1.31;81.42;98670.44;4842890;29;19916;-62
2023/01/21 07:46:17;;;;;;;;;;;;;;;-1.25;81.27;98672.91;4841650;29;19920;-62
2023/01/21 07:48:42;;;;;;;;;;;;;;;-1.15;80.95;98680.50;4840889;29;19933;-62
2023/01/21 07:51:07;;;;;;;;;;;;;;;-1.17;80.61;98674.50;4841413;29;19920;-62
2023/01/21 07:53:33;;;;;;;;;;;;;;;-1.17;80.58;98674.50;4856317;29;19920;-62
2023/01/21 07:56:01;;;;;;;;;;;;;;;-1.27;80.80;98671.25;4859774;29;19985;-63
2023/01/21 07:58:27;;;;;;;;;;;;;;;-1.32;80.98;98668.72;4860021;29;20321;-62
2023/01/21 08:00:52;;;;;;;;;;;;;;;-1.25;80.87;98672.06;4852332;29;19920;-64
2023/01/21 08:03:20;;;;;;;;;;;;;;;-1.25;81.09;98670.31;4852437;29;19920;-65
2023/01/21 08:05:45;;;;;;;;;;;;;;;-1.18;80.60;98665.09;4855105;29;20027;-63
2023/01/21 08:08:11;;;;;;;;;;;;;;;-1.09;79.54;98675.28;4858477;29;20065;-63
2023/01/21 08:10:36;;;;;;;;;;;;;;;-1.13;79.83;98668.47;4859761;29;20380;-65
2023/01/21 08:13:02;;;;;;;;;;;;;;;-1.14;80.59;98674.47;4859672;29;19920;-67
2023/01/21 08:15:27;;;;;;;;;;;;;;;-1.15;79.67;98659.91;4858996;29;19924;-64
2023/01/21 08:17:53;;;;;;;;;;;;;;;-1.15;80.41;98660.75;4859725;29;20059;-65
2023/01/21 08:20:18;;;;;;;;;;;;;;;-1.13;80.27;98669.31;4858238;29;19920;-65
2023/01/21 08:22:43;;;;;;;;;;;;;;;-1.09;80.02;98672.69;4854173;29;19920;-63
2023/01/21 08:25:09;;;;;;;;;;;;;;;-1.08;78.90;98674.41;4859490;29;19921;-63
2023/01/21 08:27:34;;;;;;;;;;;;;;;-1.00;80.57;98669.97;4857790;29;19976;-64
2023/01/21 08:30:00;;;;;;;;;;;;;;;-0.91;79.14;98680.16;4859546;29;19916;-63
2023/01/21 08:32:25;;;;;;;;;;;;;;;-0.85;79.14;98679.22;4859611;29;20003;-63
2023/01/21 08:34:50;;;;;;;;;;;;;;;-0.87;78.61;98686.94;4854188;29;19958;-63
2023/01/21 08:37:15;;;;;;;;;;;;;;;-0.79;78.98;98679.09;4859552;29;19916;-63
2023/01/21 08:39:40;;;;;;;;;;;;;;;-0.81;77.86;98692.00;4848863;29;19917;-64
2023/01/21 08:42:06;;;;;;;;;;;;;;;-0.77;78.96;98688.50;4851413;29;19926;-63
2023/01/21 08:44:31;;;;;;;;;;;;;;;-0.77;78.20;98690.25;4859301;29;20287;-64
2023/01/21 08:46:56;;;;;;;;;;;;;;;-0.76;77.38;98690.25;4852596;29;20332;-63
2023/01/21 08:49:21;;;;;;;;;;;;;;;-0.76;78.39;98695.38;4858311;29;20307;-65
2023/01/21 08:51:47;;;;;;;;;;;;;;;-0.82;78.54;98685.19;4859344;29;19943;-65
2023/01/21 08:54:12;;;;;;;;;;;;;;;-0.74;78.79;98698.78;4858303;29;19948;-64
2023/01/21 08:56:37;;;;;;;;;;;;;;;-0.62;78.12;98702.91;4861055;29;19916;-64
2023/01/21 08:59:03;;;;;;;;;;;;;;;-0.57;77.50;98705.41;4860000;29;19927;-63
2023/01/21 09:01:28;;;;;;;;;;;;;;;-0.49;77.74;98703.53;4858884;29;19924;-63
2023/01/21 09:03:54;;;;;;;;;;;;;;;-0.39;77.04;98720.56;4857202;29;20377;-63
2023/01/21 09:06:19;;;;;;;;;;;;;;;-0.40;76.91;98713.72;4857119;29;20562;-63
2023/01/21 09:08:45;;;;;;;;;;;;;;;-0.29;76.63;98716.94;4861886;29;19920;-63
2023/01/21 09:11:10;;;;;;;;;;;;;;;-0.21;75.60;98710.81;4862562;29;19923;-63
2023/01/21 09:13:36;;;;;;;;;;;;;;;-0.18;75.13;98713.34;4852324;29;19948;-63
2023/01/21 09:16:01;;;;;;;;;;;;;;;-0.15;75.50;98719.28;4842923;29;20019;-63
2023/01/21 09:18:26;;;;;;;;;;;;;;;-0.05;75.44;98725.16;4852674;29;19920;-63
2023/01/21 09:20:52;;;;;;;;;;;;;;;-0.01;74.67;98722.47;4860182;29;20468;-64
2023/01/21 09:23:23;;;;;;;;;;;;;;;0.01;74.70;98724.19;4857478;29;20392;-64
2023/01/21 09:25:51;;;;;;;;;;;;;;;0.07;74.21;98730.09;4855575;29;20278;-63
2023/01/21 09:28:16;;;;;;;;;;;;;;;0.04;74.63;98729.31;4862409;29;19923;-65
2023/01/21 09:30:42;;;;;;;;;;;;;;;0.09;74.04;98736.06;4856956;29;19919;-65
2023/01/21 09:33:07;;;;;;;;;;;;;;;0.19;73.94;98740.19;4862020;29;19917;-65
2023/01/21 09:35:32;;;;;;;;;;;;;;;0.28;73.89;98740.91;4862290;29;19944;-66
2023/01/21 09:37:57;;;;;;;;;;;;;;;0.41;73.78;98735.47;4861443;29;19924;-66
2023/01/21 09:40:23;;;;;;;;;;;;;;;0.41;72.37;98738.06;4862023;29;19916;-66
2023/01/21 09:42:48;;;;;;;;;;;;;;;0.32;72.78;98740.81;4845369;29;19965;-66
2023/01/21 09:45:14;;;;;;;;;;;;;;;0.20;73.10;98741.88;4843327;29;19968;-65
2023/01/21 09:47:39;;;;;;;;;;;;;;;0.29;73.44;98735.69;4842647;29;19950;-65
2023/01/21 09:50:05;;;;;;;;;;;;;;;0.31;73.47;98739.13;4856069;29;19967;-65
2023/01/21 09:52:34;;;;;;;;;;;;;;;0.43;72.74;98738.03;4860101;29;20003;-65
2023/01/21 09:54:59;;;;;;;;;;;;;;;0.55;72.34;98737.78;4861775;29;20438;-65
2023/01/21 09:57:27;;;;;;;;;;;;;;;0.68;72.52;98746.97;4858487;29;19920;-66
2023/01/21 10:00:00;;;;;;;;;;;;;;;0.77;71.80;98738.19;4861733;29;19922;-66
2023/01/21 10:02:32;;;;;;;;;;;;;;;0.88;72.11;98745.72;4860623;29;20412;-66
2023/01/21 10:05:16;;;;;;;;;;;;;;;0.95;71.95;98745.56;4855915;29;19924;-67
2023/01/21 10:07:49;;;;;;;;;;;;;;;1.10;71.60;98739.22;4861577;29;19916;-65
2023/01/21 10:10:17;;;;;;;;;;;;;;;0.98;71.66;98747.22;4858637;29;20007;-67
2023/01/21 10:12:42;;;;;;;;;;;;;;;0.92;71.45;98755.09;4858720;29;19919;-66
2023/01/21 10:15:26;;;;;;;;;;;;;;;0.90;72.06;98744.81;4861380;29;20008;-63
2023/01/21 10:17:59;;;;;;;;;;;;;;;1.06;72.38;98740.16;4854553;29;19963;-63
2023/01/21 10:20:42;;;;;;;;;;;;;;;1.14;71.59;98747.75;4859140;29;19923;-63
2023/01/21 10:23:10;;;;;;;;;;;;;;;1.35;71.51;98746.44;4843275;29;19927;-64
2023/01/21 10:25:36;;;;;;;;;;;;;;;1.32;71.50;98741.31;4858060;29;20304;-63
2023/01/21 10:28:05;;;;;;;;;;;;;;;1.42;71.32;98743.66;4844739;29;20528;-64
2023/01/21 10:30:38;;;;;;;;;;;;;;;1.43;71.69;98747.09;4860264;29;20396;-63
2023/01/21 10:33:03;;;;;;;;;;;;;;;1.41;71.31;98746.25;4858980;29;19927;-61
2023/01/21 10:36:04;;;;;;;;;;;;;;;1.42;71.51;98748.00;4859957;29;19916;-63
2023/01/21 10:38:32;;;;;;;;;;;;;;;1.37;72.20;98744.63;4821312;29;19928;-63
2023/01/21 10:41:00;;;;;;;;;;;;;;;1.28;71.46;98750.88;4841062;29;20415;-63
2023/01/21 10:43:31;;;;;;;;;;;;;;;1.02;72.35;98748.84;4859368;29;19922;-63
2023/01/21 10:46:14;;;;;;;;;;;;;;;1.01;72.77;98752.34;4854053;29;20338;-64
2023/01/21 10:48:46;;;;;;;;;;;;;;;1.13;72.71;98752.06;4841505;29;19963;-63
2023/01/21 10:51:14;;;;;;;;;;;;;;;1.15;71.91;98750.28;4850161;29;20302;-62
2023/01/21 10:53:53;;;;;;;;;;;;;;;1.16;72.23;98746.81;4860534;29;19917;-63
2023/01/21 10:56:25;;;;;;;;;;;;;;;1.23;72.02;98755.28;4855076;29;19976;-64
2023/01/21 10:58:51;;;;;;;;;;;;;;;1.22;71.57;98748.44;4859549;29;19944;-65
2023/01/21 11:01:19;;;;;;;;;;;;;;;1.32;71.85;98744.75;4859600;29;19916;-65
2023/01/21 11:03:45;;;;;;;;;;;;;;;1.25;70.68;98750.94;4857694;29;20440;-65
2023/01/21 11:06:11;;;;;;;;;;;;;;;1.04;70.59;98746.25;4853800;29;19921;-65
2023/01/21 11:08:37;;;;;;;;;;;;;;;1.22;70.60;98750.16;4855187;29;20315;-65
2023/01/21 11:11:02;;;;;;;;;;;;;;;1.12;69.63;98749.50;4859276;29;20010;-66
2023/01/21 11:13:27;;;;;;;;;;;;;;;0.94;69.74;98748.19;4842308;29;19976;-66
2023/01/21 11:15:53;;;;;;;;;;;;;;;0.82;69.88;98745.84;4842096;29;19923;-65
2023/01/21 11:18:25;;;;;;;;;;;;;;;0.81;69.60;98746.72;4851456;29;19916;-64
2023/01/21 11:20:50;;;;;;;;;;;;;;;0.69;70.90;98747.84;4860226;29;19927;-64
2023/01/21 11:23:26;;;;;;;;;;;;;;;0.67;71.50;98744.44;4859078;29;20091;-65
2023/01/21 11:25:51;;;;;;;;;;;;;;;0.56;69.44;98739.50;4858371;29;20375;-66
2023/01/21 11:28:23;;;;;;;;;;;;;;;0.55;69.74;98747.25;4859991;29;20384;-62
2023/01/21 11:30:48;;;;;;;;;;;;;;;0.66;69.32;98740.16;4853513;29;19921;-63
2023/01/21 11:33:16;;;;;;;;;;;;;;;0.68;68.70;98736.63;4848492;29;19923;-63
2023/01/21 11:35:42;;;;;;;;;;;;;;;0.78;67.76;98739.03;4858940;29;20292;-63
2023/01/21 11:38:12;;;;;;;;;;;;;;;0.81;68.10;98732.09;4859711;29;19923;-62
2023/01/21 11:40:38;;;;;;;;;;;;;;;0.85;67.39;98725.13;4851746;29;19921;-62
2023/01/21 11:43:03;;;;;;;;;;;;;;;0.98;67.62;98721.41;4858497;29;19916;-62
2023/01/21 11:45:32;;;;;;;;;;;;;;;1.00;67.59;98723.94;4857484;29;19921;-63
2023/01/21 11:47:57;;;;;;;;;;;;;;;1.15;68.55;98719.28;4856262;29;20463;-62
2023/01/21 11:50:33;;;;;;;;;;;;;;;1.28;68.27;98716.44;4858807;29;20000;-62
2023/01/21 11:53:07;;;;;;;;;;;;;;;1.36;66.81;98717.09;4859657;29;19920;-61
2023/01/21 11:55:38;;;;;;;;;;;;;;;1.25;65.73;98722.53;4858684;29;19923;-63
2023/01/21 11:58:03;;;;;;;;;;;;;;;1.29;66.43;98720.72;4852010;29;19916;-62
2023/01/21 12:00:28;;;;;;;;;;;;;;;1.35;66.49;98716.25;4859794;29;19923;-63
2023/01/21 12:02:55;;;;;;;;;;;;;;;1.35;67.02;98710.25;4854118;29;19920;-63
2023/01/21 12:05:20;;;;;;;;;;;;;;;1.26;66.04;98706.13;4859407;29;19920;-63
2023/01/21 12:07:46;;;;;;;;;;;;;;;1.40;66.27;98698.88;4860102;29;19922;-63
2023/01/21 12:10:11;;;;;;;;;;;;;;;1.54;65.36;98710.63;4848583;29;20019;-66
2023/01/21 12:12:46;;;;;;;;;;;;;;;1.34;65.13;98708.53;4848658;29;19948;-65
2023/01/21 12:15:32;;;;;;;;;;;;;;;1.34;65.97;98704.22;4849028;29;19976;-65
2023/01/21 12:18:07;;;;;;;;;;;;;;;1.49;66.22;98697.00;4859144;29;19916;-61
2023/01/21 12:20:36;;;;;;;;;;;;;;;1.54;65.17;98697.72;4858246;29;19924;-61
2023/01/21 12:23:04;;;;;;;;;;;;;;;1.42;66.10;98696.28;4853013;29;19920;-60
2023/01/21 12:25:39;;;;;;;;;;;;;;;1.39;65.71;98701.53;4859511;29;20023;-62
2023/01/21 12:28:17;;;;;;;;;;;;;;;1.43;65.77;98697.97;4843540;29;19916;-61
2023/01/21 12:30:42;;;;;;;;;;;;;;;1.54;65.12;98695.13;4861851;29;19927;-60
2023/01/21 12:33:12;;;;;;;;;;;;;;;1.65;63.93;98691.41;4853526;29;20316;-62
2023/01/21 12:35:38;;;;;;;;;;;;;;;1.69;64.76;98696.47;4859294;29;19920;-61
2023/01/21 12:38:10;;;;;;;;;;;;;;;1.64;64.19;98681.94;4861897;29;20335;-62
2023/01/21 12:40:35;;;;;;;;;;;;;;;1.40;64.18;98690.28;4861108;29;19920;-61
2023/01/21 12:43:12;;;;;;;;;;;;;;;3.65;62.72;98677.84;4860694;29;20304;-62
2023/01/21 12:45:43;;;;;;;;;;;;;;;2.74;59.49;98687.59;4851864;29;19931;-62
2023/01/21 12:48:10;;;;;;;;;;;;;;;2.25;62.14;98684.66;4856925;29;19963;-66
2023/01/21 12:50:40;;;;;;;;;;;;;;;2.09;62.61;98685.97;4860574;29;19931;-64
2023/01/21 12:53:08;;;;;;;;;;;;;;;1.85;62.50;98695.22;4861636;29;19916;-63
2023/01/21 12:55:46;;;;;;;;;;;;;;;1.73;63.47;98688.63;4851628;29;19927;-63
2023/01/21 12:58:14;;;;;;;;;;;;;;;1.39;64.13;98691.19;4855769;29;19920;-63
2023/01/21 13:00:41;;;;;;;;;;;;;;;1.25;64.56;98704.44;4858303;29;19972;-56
2023/01/21 13:03:20;;;;;;;;;;;;;;;1.18;65.39;98703.72;4852858;29;20413;-56
2023/01/21 13:05:45;;;;;;;;;;;;;;;1.30;65.91;98702.56;4860672;29;19928;-55
2023/01/21 13:08:13;;;;;;;;;;;;;;;1.24;65.76;98700.16;4856582;29;19916;-56
2023/01/21 13:10:42;;;;;;;;;;;;;;;1.23;65.56;98702.75;4862899;29;20281;-55
2023/01/21 13:13:10;;;;;;;;;;;;;;;1.26;65.64;98707.88;4853252;29;20300;-59
2023/01/21 13:15:36;;;;;;;;;;;;;;;1.17;65.63;98707.19;4860657;29;20312;-58
2023/01/21 13:18:02;;;;;;;;;;;;;;;1.18;66.08;98702.88;4860243;29;19920;-58
2023/01/21 13:20:28;;;;;;;;;;;;;;;1.16;65.69;98710.66;4860731;29;20408;-59
2023/01/21 13:22:53;;;;;;;;;;;;;;;0.94;66.22;98702.53;4859654;29;19924;-59
2023/01/21 13:25:27;;;;;;;;;;;;;;;0.77;67.57;98709.78;4855989;29;19924;-59
2023/01/21 13:27:57;;;;;;;;;;;;;;;0.90;67.49;98707.81;4861908;29;19927;-57
2023/01/21 13:30:28;;;;;;;;;;;;;;;0.81;67.50;98708.00;4860100;29;20300;-59
2023/01/21 13:32:58;;;;;;;;;;;;;;;0.74;66.73;98707.28;4860027;29;19926;-60
2023/01/21 13:35:42;;;;;;;;;;;;;;;0.63;67.32;98710.09;4848671;29;19978;-59
2023/01/21 13:38:12;;;;;;;;;;;;;;;0.52;68.83;98709.47;4854564;29;19979;-59
2023/01/21 13:40:39;;;;;;;;;;;;;;;0.29;69.67;98716.78;4859357;29;19960;-58
2023/01/21 13:43:14;;;;;;;;;;;;;;;0.23;70.59;98721.19;4861064;29;20528;-59
2023/01/21 13:45:58;;;;;;;;;;;;;;;0.29;70.19;98719.38;4853538;29;20389;-59
2023/01/21 13:48:41;;;;;;;;;;;;;;;0.17;70.46;98726.47;4856943;29;19924;-58
2023/01/21 13:51:25;;;;;;;;;;;;;;;0.17;71.13;98721.31;4842771;29;20372;-58
2023/01/21 13:53:59;;;;;;;;;;;;;;;0.10;71.15;98714.53;4841376;29;20452;-58
2023/01/21 13:56:30;;;;;;;;;;;;;;;0.04;71.67;98719.84;4850968;29;19990;-61
2023/01/21 13:58:57;;;;;;;;;;;;;;;0.08;71.76;98724.06;4857486;29;19977;-56
2023/01/21 14:01:28;;;;;;;;;;;;;;;0.08;72.02;98718.91;4859695;29;19935;-58
2023/01/21 14:04:03;;;;;;;;;;;;;;;0.18;71.96;98712.69;4857857;29;19920;-58
2023/01/21 14:06:33;;;;;;;;;;;;;;;0.12;72.25;98723.13;4857496;29;19920;-58
2023/01/21 14:08:59;;;;;;;;;;;;;;;0.04;72.26;98725.00;4852616;29;19933;-58
2023/01/21 14:11:36;;;;;;;;;;;;;;;0.00;72.33;98723.34;4859484;29;19917;-59
2023/01/21 14:14:01;;;;;;;;;;;;;;;-0.01;72.39;98726.78;4851075;29;19968;-54
2023/01/21 14:16:37;;;;;;;;;;;;;;;0.00;72.84;98720.78;4860802;29;19916;-59
2023/01/21 14:19:20;;;;;;;;;;;;;;;0.03;73.35;98712.94;4853535;29;20141;-59
2023/01/21 14:21:46;;;;;;;;;;;;;;;0.00;72.89;98718.19;4842306;29;19972;-59
2023/01/21 14:24:16;;;;;;;;;;;;;;;-0.08;74.22;98722.63;4847050;29;19920;-58
2023/01/21 14:26:53;;;;;;;;;;;;;;;-0.15;74.66;98723.59;4857967;29;20028;-58
2023/01/21 14:29:21;;;;;;;;;;;;;;;-0.20;75.41;98720.28;4859831;29;19916;-59
2023/01/21 14:31:50;;;;;;;;;;;;;;;-0.13;75.00;98724.44;4859079;29;19916;-58
2023/01/21 14:34:16;;;;;;;;;;;;;;;-0.19;75.52;98722.81;4859335;29;19920;-57
2023/01/21 14:36:41;;;;;;;;;;;;;;;-0.22;74.96;98716.84;4854471;29;20354;-59
2023/01/21 14:39:12;;;;;;;;;;;;;;;-0.21;75.75;98713.38;4857016;29;19931;-58
2023/01/21 14:41:56;;;;;;;;;;;;;;;-0.31;75.97;98711.00;4844194;29;19927;-58
2023/01/21 14:44:40;;;;;;;;;;;;;;;-0.36;76.07;98709.34;4859910;29;20014;-59
2023/01/21 14:47:23;;;;;;;;;;;;;;;-0.33;75.98;98712.72;4860641;29;19921;-58
2023/01/21 14:49:51;;;;;;;;;;;;;;;-0.49;76.56;98709.53;4860439;29;19916;-59
2023/01/21 14:52:29;;;;;;;;;;;;;;;-0.50;76.95;98717.31;4854659;29;19920;-58
2023/01/21 14:54:55;;;;;;;;;;;;;;;-0.59;78.01;98718.28;4857448;29;20387;-59
2023/01/21 14:57:40;;;;;;;;;;;;;;;-0.52;78.69;98719.03;4860269;29;19945;-58
2023/01/21 15:00:11;;;;;;;;;;;;;;;-0.44;78.61;98718.94;4860100;29;19916;-56
2023/01/21 15:02:38;;;;;;;;;;;;;;;-0.39;79.26;98717.97;4855653;29;19920;-58
2023/01/21 15:05:13;;;;;;;;;;;;;;;-0.41;77.38;98721.44;4848112;29;19932;-57
2023/01/21 15:07:39;;;;;;;;;;;;;;;-0.39;76.88;98723.13;4860004;29;19920;-59
2023/01/21 15:10:08;;;;;;;;;;;;;;;-0.41;76.27;98722.31;4856978;29;19920;-59
2023/01/21 15:12:33;;;;;;;;;;;;;;;-0.47;76.79;98717.25;4852537;29;19924;-60
2023/01/21 15:14:59;;;;;;;;;;;;;;;-0.48;77.47;98723.31;4852843;29;19926;-58
2023/01/21 15:17:43;;;;;;;;;;;;;;;-0.47;76.42;98719.84;4859770;29;19998;-59
2023/01/21 15:20:27;;;;;;;;;;;;;;;-0.49;76.23;98724.16;4860124;29;19947;-58
2023/01/21 15:23:12;;;;;;;;;;;;;;;-0.47;76.87;98730.16;4856033;29;19967;-57
2023/01/21 15:25:37;;;;;;;;;;;;;;;-0.45;77.08;98730.94;4855890;29;20314;-58
2023/01/21 15:28:15;;;;;;;;;;;;;;;-0.44;76.56;98729.25;4858386;29;19923;-57
2023/01/21 15:30:41;;;;;;;;;;;;;;;-0.41;77.40;98726.59;4859816;29;19916;-59
2023/01/21 15:33:10;;;;;;;;;;;;;;;-0.40;75.73;98733.47;4858260;29;19916;-58
2023/01/21 15:35:36;;;;;;;;;;;;;;;-0.38;75.53;98742.91;4853937;29;19955;-58
2023/01/21 15:38:11;;;;;;;;;;;;;;;-0.50;76.12;98728.47;4858170;29;20003;-58
2023/01/21 15:40:38;;;;;;;;;;;;;;;-0.56;77.56;98732.84;4859614;29;20337;-57
2023/01/21 15:43:04;;;;;;;;;;;;;;;-0.63;78.01;98737.25;4857903;29;20471;-57
2023/01/21 15:45:35;;;;;;;;;;;;;;;-0.59;78.09;98738.06;4853014;29;20309;-56
2023/01/21 15:48:04;;;;;;;;;;;;;;;-0.60;77.16;98739.78;4851174;29;20337;-58
2023/01/21 15:50:30;;;;;;;;;;;;;;;-0.58;77.03;98738.03;4857446;29;20395;-55
2023/01/21 15:53:04;;;;;;;;;;;;;;;-0.61;77.77;98739.81;4857695;29;19992;-58
2023/01/21 15:55:38;;;;;;;;;;;;;;;-0.64;77.22;98745.00;4854054;29;20216;-59
2023/01/21 15:58:07;;;;;;;;;;;;;;;-0.63;77.63;98744.97;4856550;29;20379;-58
2023/01/21 16:00:35;;;;;;;;;;;;;;;-0.63;77.74;98741.56;4858345;29;19916;-58
2023/01/21 16:03:16;;;;;;;;;;;;;;;-0.66;77.96;98751.91;4859688;29;19916;-58
2023/01/21 16:05:47;;;;;;;;;;;;;;;-0.67;77.61;98745.91;4863387;29;20452;-58
2023/01/21 16:08:15;;;;;;;;;;;;;;;-0.73;78.46;98757.13;4861633;29;19920;-57
2023/01/21 16:10:51;;;;;;;;;;;;;;;-0.70;78.68;98747.69;4864320;29;19920;-59
2023/01/21 16:13:26;;;;;;;;;;;;;;;-0.71;79.39;98751.97;4863714;29;19999;-59
2023/01/21 16:15:51;;;;;;;;;;;;;;;-0.76;79.49;98752.06;4865442;29;19928;-58
2023/01/21 16:18:35;;;;;;;;;;;;;;;-0.74;79.84;98752.88;4854278;29;19924;-56
2023/01/21 16:21:00;;;;;;;;;;;;;;;-0.76;80.80;98754.63;4865136;29;19916;-59
2023/01/21 16:23:26;;;;;;;;;;;;;;;-0.79;81.04;98752.09;4863994;29;19916;-58
2023/01/21 16:25:51;;;;;;;;;;;;;;;-0.89;81.30;98765.97;4865079;29;19920;-58
2023/01/21 16:28:17;;;;;;;;;;;;;;;-0.95;81.62;98750.59;4843138;29;20322;-54
2023/01/21 16:30:52;;;;;;;;;;;;;;;-0.88;82.16;98754.78;4863960;29;19945;-59
2023/01/21 16:33:17;;;;;;;;;;;;;;;-0.97;82.89;98757.47;4863150;29;19935;-58
2023/01/21 16:35:52;;;;;;;;;;;;;;;-0.94;82.83;98757.44;4856351;29;19931;-58
2023/01/21 16:38:18;;;;;;;;;;;;;;;-1.01;83.06;98758.41;4855873;29;19930;-59
2023/01/21 16:40:44;;;;;;;;;;;;;;;-0.91;81.77;98766.88;4860619;29;20315;-58
2023/01/21 16:43:22;;;;;;;;;;;;;;;-0.93;82.57;98760.88;4861966;29;19920;-56
2023/01/21 16:45:49;;;;;;;;;;;;;;;-0.96;82.08;98764.34;4860432;29;20437;-59
2023/01/21 16:48:35;;;;;;;;;;;;;;;-0.93;81.65;98764.28;4852441;29;19960;-59
2023/01/21 16:51:00;;;;;;;;;;;;;;;-0.94;82.32;98761.75;4864078;29;20392;-57
2023/01/21 16:53:25;;;;;;;;;;;;;;;-0.97;82.40;98767.78;4859612;29;19924;-56
2023/01/21 16:55:52;;;;;;;;;;;;;;;-0.95;81.32;98760.91;4859651;29;19948;-59
2023/01/21 16:58:28;;;;;;;;;;;;;;;-0.97;80.94;98762.63;4854884;29;19935;-57
2023/01/21 17:01:04;;;;;;;;;;;;;;;-0.92;81.05;98760.88;4861937;29;19946;-58
2023/01/21 17:03:31;;;;;;;;;;;;;;;-0.96;82.03;98767.78;4855366;29;19921;-58
2023/01/21 17:05:56;;;;;;;;;;;;;;;-0.90;82.11;98763.41;4854149;29;20363;-59
2023/01/21 17:08:21;;;;;;;;;;;;;;;-0.83;81.41;98760.72;4859333;29;19932;-59
2023/01/21 17:11:06;;;;;;;;;;;;;;;-0.86;80.69;98768.50;4859073;29;19927;-58
2023/01/21 17:13:31;;;;;;;;;;;;;;;-0.84;80.49;98766.75;4861258;29;20444;-59
2023/01/21 17:15:59;;;;;;;;;;;;;;;-0.85;81.20;98767.63;4861703;29;20006;-58
2023/01/21 17:18:25;;;;;;;;;;;;;;;-0.90;81.42;98761.69;4861029;29;19916;-59
2023/01/21 17:21:01;;;;;;;;;;;;;;;-0.89;81.88;98763.41;4852736;29;19931;-58
2023/01/21 17:23:31;;;;;;;;;;;;;;;-0.89;82.30;98763.41;4853793;29;19920;-59
2023/01/21 17:25:57;;;;;;;;;;;;;;;-0.88;81.86;98762.53;4848226;29;19931;-61
2023/01/21 17:28:52;;;;;;;;;;;;;;;-0.91;82.36;98772.84;4848418;29;19999;-60
2023/01/21 17:31:21;;;;;;;;;;;;;;;-0.96;82.03;98770.34;4855003;29;19955;-60
2023/01/21 17:33:58;;;;;;;;;;;;;;;-0.92;82.36;98768.59;4859482;29;19920;-59
2023/01/21 17:36:28;;;;;;;;;;;;;;;-0.94;82.93;98770.31;4857545;29;20357;-59
2023/01/21 17:38:54;;;;;;;;;;;;;;;-0.95;83.28;98763.47;4856394;29;19931;-58
2023/01/21 17:41:23;;;;;;;;;;;;;;;-0.90;83.65;98771.97;4860233;29;19916;-57
2023/01/21 17:43:48;;;;;;;;;;;;;;;-0.95;83.08;98766.06;4853551;29;19921;-59
2023/01/21 17:46:14;;;;;;;;;;;;;;;-0.94;83.83;98766.91;4861189;29;19920;-58
2023/01/21 17:48:43;;;;;;;;;;;;;;;-0.97;83.87;98763.47;4860810;29;19916;-60
2023/01/21 17:51:11;;;;;;;;;;;;;;;-0.97;83.25;98762.63;4860069;29;20325;-59
2023/01/21 17:53:40;;;;;;;;;;;;;;;-0.92;83.36;98766.00;4855910;29;19920;-63
2023/01/21 17:56:05;;;;;;;;;;;;;;;-0.94;83.92;98765.16;4860821;29;19968;-60
2023/01/21 17:58:31;;;;;;;;;;;;;;;-0.91;83.84;98772.84;4848163;29;19928;-61
2023/01/21 18:00:57;;;;;;;;;;;;;;;-0.85;83.02;98762.47;4843529;29;19924;-62
2023/01/21 18:03:22;;;;;;;;;;;;;;;-0.93;83.08;98768.59;4848907;29;19932;-61
2023/01/21 18:05:47;;;;;;;;;;;;;;;-0.90;84.17;98774.56;4857332;29;20003;-60
2023/01/21 18:08:13;;;;;;;;;;;;;;;-0.89;83.65;98768.56;4861566;29;19928;-60
2023/01/21 18:10:38;;;;;;;;;;;;;;;-0.88;83.17;98766.81;4857745;29;19928;-60
2023/01/21 18:13:03;;;;;;;;;;;;;;;-0.88;84.46;98765.09;4859824;29;19968;-60
2023/01/21 18:15:29;;;;;;;;;;;;;;;-0.86;83.81;98765.94;4859043;29;19920;-60
2023/01/21 18:17:57;;;;;;;;;;;;;;;-0.86;82.97;98768.50;4875534;29;19916;-62
2023/01/21 18:20:23;;;;;;;;;;;;;;;-0.92;82.88;98771.16;4860121;29;19962;-63
2023/01/21 18:22:48;;;;;;;;;;;;;;;-0.96;83.84;98765.22;4858699;29;19925;-61
2023/01/21 18:25:14;;;;;;;;;;;;;;;-1.01;84.81;98761.81;4855066;29;20011;-61
2023/01/21 18:27:45;;;;;;;;;;;;;;;-0.97;84.42;98762.63;4848935;29;20012;-61
